sensor_id;sensor_type;location;lat;lon;timestamp;temperature;humidity
45012;DHT22;63444;48.148;11.542;2024-01-30T00:01:26;5.00;99.90
45012;DHT22;63444;48.148;11.542;2024-01-30T00:03:52;5.00;99.90
45012;DHT22;63444;48.148;11.542;2024-01-30T00:06:20;5.00;99.90
45012;DHT22;63444;48.148;11.542;2024-01-30T00:08:46;5.00;99.90
45012;DHT22;63444;48.148;11.542;2024-01-30T00:11:14;4.90;99.90
45012;DHT22;63444;48.148;11.542;2024-01-30T00:13:40;4.90;99.90
45012;DHT22;63444;48.148;11.542;2024-01-30T00:16:06;4.90;99.90
45012;DHT22;63444;48.148;11.542;2024-01-30T00:18:32;4.90;99.90
45012;DHT22;63444;48.148;11.542;2024-01-30T00:20:58;4.80;99.90
45012;DHT22;63444;48.148;11.542;2024-01-30T00:23:23;4.80;99.90
45012;DHT22;63444;48.148;11.542;2024-01-30T00:25:50;4.80;99.90
45012;DHT22;63444;48.148;11.542;2024-01-30T00:28:15;4.80;99.90
45012;DHT22;63444;48.148;11.542;2024-01-30T00:30:41;4.80;99.90
45012;DHT22;63444;48.148;11.542;2024-01-30T00:33:08;4.70;99.90
45012;DHT22;63444;48.148;11.542;2024-01-30T00:35:34;4.70;99.90
45012;DHT22;63444;48.148;11.542;2024-01-30T00:38:00;4.70;99.90
45012;DHT22;63444;48.148;11.542;2024-01-30T00:40:26;4.60;99.90
45012;DHT22;63444;48.148;11.542;2024-01-30T00:42:51;4.70;99.90
45012;DHT22;63444;48.148;11.542;2024-01-30T00:45:18;4.60;99.90
45012;DHT22;63444;48.148;11.542;2024-01-30T00:47:44;4.60;99.90
45012;DHT22;63444;48.148;11.542;2024-01-30T00:50:11;4.60;99.90
45012;DHT22;63444;48.148;11.542;2024-01-30T00:52:38;4.60;99.90
45012;DHT22;63444;48.148;11.542;2024-01-30T00:55:05;4.60;99.90
45012;DHT22;63444;48.148;11.542;2024-01-30T00:57:30;4.60;99.90
45012;DHT22;63444;48.148;11.542;2024-01-30T00:59:57;4.50;99.90
45012;DHT22;63444;48.148;11.542;2024-01-30T01:02:22;4.50;99.90
45012;DHT22;63444;48.148;11.542;2024-01-30T01:04:48;4.50;99.90
45012;DHT22;63444;48.148;11.542;2024-01-30T01:07:13;4.50;99.90
45012;DHT22;63444;48.148;11.542;2024-01-30T01:09:39;4.50;99.90
45012;DHT22;63444;48.148;11.542;2024-01-30T01:12:05;4.50;99.90
45012;DHT22;63444;48.148;11.542;2024-01-30T01:14:31;4.50;99.90
45012;DHT22;63444;48.148;11.542;2024-01-30T01:16:56;4.50;99.90
45012;DHT22;63444;48.148;11.542;2024-01-30T01:19:22;4.40;99.90
45012;DHT22;63444;48.148;11.542;2024-01-30T01:21:48;4.40;99.90
45012;DHT22;63444;48.148;11.542;2024-01-30T01:24:13;4.40;99.90
45012;DHT22;63444;48.148;11.542;2024-01-30T01:26:39;4.40;99.90
45012;DHT22;63444;48.148;11.542;2024-01-30T01:29:06;4.40;99.90
45012;DHT22;63444;48.148;11.542;2024-01-30T01:31:38;4.40;99.90
45012;DHT22;63444;48.148;11.542;2024-01-30T01:34:11;4.40;99.90
45012;DHT22;63444;48.148;11.542;2024-01-30T01:36:37;4.30;99.90
45012;DHT22;63444;48.148;11.542;2024-01-30T01:39:03;4.30;99.90
45012;DHT22;63444;48.148;11.542;2024-01-30T01:41:35;4.30;99.90
45012;DHT22;63444;48.148;11.542;2024-01-30T01:44:00;4.20;99.90
45012;DHT22;63444;48.148;11.542;2024-01-30T01:46:27;4.30;99.90
45012;DHT22;63444;48.148;11.542;2024-01-30T01:48:55;4.30;99.90
45012;DHT22;63444;48.148;11.542;2024-01-30T01:51:22;4.30;99.90
45012;DHT22;63444;48.148;11.542;2024-01-30T01:53:48;4.20;99.90
45012;DHT22;63444;48.148;11.542;2024-01-30T01:56:14;4.20;99.90
45012;DHT22;63444;48.148;11.542;2024-01-30T01:58:40;4.20;99.90
45012;DHT22;63444;48.148;11.542;2024-01-30T02:01:07;4.20;99.90
45012;DHT22;63444;48.148;11.542;2024-01-30T02:03:34;4.20;99.90
45012;DHT22;63444;48.148;11.542;2024-01-30T02:06:00;4.20;99.90
45012;DHT22;63444;48.148;11.542;2024-01-30T02:08:27;4.20;99.90
45012;DHT22;63444;48.148;11.542;2024-01-30T02:10:53;4.20;99.90
45012;DHT22;63444;48.148;11.542;2024-01-30T02:13:20;4.20;99.90
45012;DHT22;63444;48.148;11.542;2024-01-30T02:15:51;4.20;99.90
45012;DHT22;63444;48.148;11.542;2024-01-30T02:18:19;4.10;99.90
45012;DHT22;63444;48.148;11.542;2024-01-30T02:20:46;4.10;99.90
45012;DHT22;63444;48.148;11.542;2024-01-30T02:23:12;4.10;99.90
45012;DHT22;63444;48.148;11.542;2024-01-30T02:25:39;4.10;99.90
45012;DHT22;63444;48.148;11.542;2024-01-30T02:28:13;4.10;99.90
45012;DHT22;63444;48.148;11.542;2024-01-30T02:30:40;4.10;99.90
45012;DHT22;63444;48.148;11.542;2024-01-30T02:33:06;4.10;99.90
45012;DHT22;63444;48.148;11.542;2024-01-30T02:35:32;4.10;99.90
45012;DHT22;63444;48.148;11.542;2024-01-30T02:37:58;4.00;99.90
45012;DHT22;63444;48.148;11.542;2024-01-30T02:40:24;4.00;99.90
45012;DHT22;63444;48.148;11.542;2024-01-30T02:42:50;4.00;99.90
45012;DHT22;63444;48.148;11.542;2024-01-30T02:45:15;4.00;99.90
45012;DHT22;63444;48.148;11.542;2024-01-30T02:47:41;4.00;99.90
45012;DHT22;63444;48.148;11.542;2024-01-30T02:50:07;4.00;99.90
45012;DHT22;63444;48.148;11.542;2024-01-30T02:52:33;4.00;99.90
45012;DHT22;63444;48.148;11.542;2024-01-30T02:54:59;4.00;99.90
45012;DHT22;63444;48.148;11.542;2024-01-30T02:57:25;4.00;99.90
45012;DHT22;63444;48.148;11.542;2024-01-30T02:59:51;4.00;99.90
45012;DHT22;63444;48.148;11.542;2024-01-30T03:02:17;4.00;99.90
45012;DHT22;63444;48.148;11.542;2024-01-30T03:04:42;3.90;99.90
45012;DHT22;63444;48.148;11.542;2024-01-30T03:07:08;3.90;99.90
45012;DHT22;63444;48.148;11.542;2024-01-30T03:09:34;3.90;99.90
45012;DHT22;63444;48.148;11.542;2024-01-30T03:12:00;3.90;99.90
45012;DHT22;63444;48.148;11.542;2024-01-30T03:14:26;3.90;99.90
45012;DHT22;63444;48.148;11.542;2024-01-30T03:16:52;3.90;99.90
45012;DHT22;63444;48.148;11.542;2024-01-30T03:19:17;3.90;99.90
45012;DHT22;63444;48.148;11.542;2024-01-30T03:21:44;3.90;99.90
45012;DHT22;63444;48.148;11.542;2024-01-30T03:24:10;3.90;99.90
45012;DHT22;63444;48.148;11.542;2024-01-30T03:26:36;3.90;99.90
45012;DHT22;63444;48.148;11.542;2024-01-30T03:29:01;3.90;99.90
45012;DHT22;63444;48.148;11.542;2024-01-30T03:31:27;3.90;99.90
45012;DHT22;63444;48.148;11.542;2024-01-30T03:33:53;3.90;99.90
45012;DHT22;63444;48.148;11.542;2024-01-30T03:36:18;3.90;99.90
45012;DHT22;63444;48.148;11.542;2024-01-30T03:38:44;3.90;99.90
45012;DHT22;63444;48.148;11.542;2024-01-30T03:41:10;3.90;99.90
45012;DHT22;63444;48.148;11.542;2024-01-30T03:43:36;3.90;99.90
45012;DHT22;63444;48.148;11.542;2024-01-30T03:46:02;3.90;99.90
45012;DHT22;63444;48.148;11.542;2024-01-30T03:48:29;3.90;99.90
45012;DHT22;63444;48.148;11.542;2024-01-30T03:50:55;3.90;99.90
45012;DHT22;63444;48.148;11.542;2024-01-30T03:53:21;3.90;99.90
45012;DHT22;63444;48.148;11.542;2024-01-30T03:55:47;3.90;99.90
45012;DHT22;63444;48.148;11.542;2024-01-30T03:58:13;3.90;99.90
45012;DHT22;63444;48.148;11.542;2024-01-30T04:00:39;3.80;99.90
45012;DHT22;63444;48.148;11.542;2024-01-30T04:03:04;3.90;99.90
45012;DHT22;63444;48.148;11.542;2024-01-30T04:05:30;3.90;99.90
45012;DHT22;63444;48.148;11.542;2024-01-30T04:07:56;3.90;99.90
45012;DHT22;63444;48.148;11.542;2024-01-30T04:10:21;3.90;99.90
45012;DHT22;63444;48.148;11.542;2024-01-30T04:12:47;3.90;99.90
45012;DHT22;63444;48.148;11.542;2024-01-30T04:15:13;3.90;99.90
45012;DHT22;63444;48.148;11.542;2024-01-30T04:17:39;3.90;99.90
45012;DHT22;63444;48.148;11.542;2024-01-30T04:20:06;3.90;99.90
45012;DHT22;63444;48.148;11.542;2024-01-30T04:22:31;3.90;99.90
45012;DHT22;63444;48.148;11.542;2024-01-30T04:24:57;3.90;99.90
45012;DHT22;63444;48.148;11.542;2024-01-30T04:27:23;3.90;99.90
45012;DHT22;63444;48.148;11.542;2024-01-30T04:29:49;3.90;99.90
45012;DHT22;63444;48.148;11.542;2024-01-30T04:32:14;3.90;99.90
45012;DHT22;63444;48.148;11.542;2024-01-30T04:34:40;3.90;99.90
45012;DHT22;63444;48.148;11.542;2024-01-30T04:37:06;3.90;99.90
45012;DHT22;63444;48.148;11.542;2024-01-30T04:39:33;3.90;99.90
45012;DHT22;63444;48.148;11.542;2024-01-30T04:41:59;3.90;99.90
45012;DHT22;63444;48.148;11.542;2024-01-30T04:44:24;3.90;99.90
45012;DHT22;63444;48.148;11.542;2024-01-30T04:46:50;3.80;99.90
45012;DHT22;63444;48.148;11.542;2024-01-30T04:49:16;3.80;99.90
45012;DHT22;63444;48.148;11.542;2024-01-30T04:51:41;3.80;99.90
45012;DHT22;63444;48.148;11.542;2024-01-30T04:54:07;3.80;99.90
45012;DHT22;63444;48.148;11.542;2024-01-30T04:56:33;3.80;99.90
45012;DHT22;63444;48.148;11.542;2024-01-30T04:58:58;3.80;99.90
45012;DHT22;63444;48.148;11.542;2024-01-30T05:01:24;3.80;99.90
45012;DHT22;63444;48.148;11.542;2024-01-30T05:03:50;3.80;99.90
45012;DHT22;63444;48.148;11.542;2024-01-30T05:06:27;3.80;99.90
45012;DHT22;63444;48.148;11.542;2024-01-30T05:08:53;3.80;99.90
45012;DHT22;63444;48.148;11.542;2024-01-30T05:11:18;3.80;99.90
45012;DHT22;63444;48.148;11.542;2024-01-30T05:13:44;3.80;99.90
45012;DHT22;63444;48.148;11.542;2024-01-30T05:16:09;3.80;99.90
45012;DHT22;63444;48.148;11.542;2024-01-30T05:18:35;3.80;99.90
45012;DHT22;63444;48.148;11.542;2024-01-30T05:21:02;3.80;99.90
45012;DHT22;63444;48.148;11.542;2024-01-30T05:23:28;3.80;99.90
45012;DHT22;63444;48.148;11.542;2024-01-30T05:25:53;3.70;99.90
45012;DHT22;63444;48.148;11.542;2024-01-30T05:28:19;3.70;99.90
45012;DHT22;63444;48.148;11.542;2024-01-30T05:30:44;3.60;99.90
45012;DHT22;63444;48.148;11.542;2024-01-30T05:33:10;3.70;99.90
45012;DHT22;63444;48.148;11.542;2024-01-30T05:35:37;3.60;99.90
45012;DHT22;63444;48.148;11.542;2024-01-30T05:38:03;3.60;99.90
45012;DHT22;63444;48.148;11.542;2024-01-30T05:40:30;3.60;99.90
45012;DHT22;63444;48.148;11.542;2024-01-30T05:42:56;3.60;99.90
45012;DHT22;63444;48.148;11.542;2024-01-30T05:45:23;3.60;99.90
45012;DHT22;63444;48.148;11.542;2024-01-30T05:47:49;3.60;99.90
45012;DHT22;63444;48.148;11.542;2024-01-30T05:50:14;3.50;99.90
45012;DHT22;63444;48.148;11.542;2024-01-30T05:52:40;3.50;99.90
45012;DHT22;63444;48.148;11.542;2024-01-30T05:55:06;3.50;99.90
45012;DHT22;63444;48.148;11.542;2024-01-30T05:57:32;3.60;99.90
45012;DHT22;63444;48.148;11.542;2024-01-30T05:59:57;3.50;99.90
45012;DHT22;63444;48.148;11.542;2024-01-30T06:02:23;3.50;99.90
45012;DHT22;63444;48.148;11.542;2024-01-30T06:04:49;3.50;99.90
45012;DHT22;63444;48.148;11.542;2024-01-30T06:07:14;3.50;99.90
45012;DHT22;63444;48.148;11.542;2024-01-30T06:09:40;3.50;99.90
45012;DHT22;63444;48.148;11.542;2024-01-30T06:12:06;3.50;99.90
45012;DHT22;63444;48.148;11.542;2024-01-30T06:14:32;3.50;99.90
45012;DHT22;63444;48.148;11.542;2024-01-30T06:16:59;3.60;99.90
45012;DHT22;63444;48.148;11.542;2024-01-30T06:19:24;3.60;99.90
45012;DHT22;63444;48.148;11.542;2024-01-30T06:21:50;3.60;99.90
45012;DHT22;63444;48.148;11.542;2024-01-30T06:24:15;3.60;99.90
45012;DHT22;63444;48.148;11.542;2024-01-30T06:26:41;3.60;99.90
45012;DHT22;63444;48.148;11.542;2024-01-30T06:29:06;3.60;99.90
45012;DHT22;63444;48.148;11.542;2024-01-30T06:31:42;3.70;99.90
45012;DHT22;63444;48.148;11.542;2024-01-30T06:34:11;3.60;99.90
45012;DHT22;63444;48.148;11.542;2024-01-30T06:36:38;3.70;99.90
45012;DHT22;63444;48.148;11.542;2024-01-30T06:39:04;3.70;99.90
45012;DHT22;63444;48.148;11.542;2024-01-30T06:41:30;3.70;99.90
45012;DHT22;63444;48.148;11.542;2024-01-30T06:43:57;3.70;99.90
45012;DHT22;63444;48.148;11.542;2024-01-30T06:46:23;3.70;99.90
45012;DHT22;63444;48.148;11.542;2024-01-30T06:48:48;3.70;99.90
45012;DHT22;63444;48.148;11.542;2024-01-30T06:51:14;3.70;99.90
45012;DHT22;63444;48.148;11.542;2024-01-30T06:53:39;3.70;99.90
45012;DHT22;63444;48.148;11.542;2024-01-30T06:56:05;3.80;99.90
45012;DHT22;63444;48.148;11.542;2024-01-30T06:58:31;3.80;99.90
45012;DHT22;63444;48.148;11.542;2024-01-30T07:00:58;3.80;99.90
45012;DHT22;63444;48.148;11.542;2024-01-30T07:03:24;3.80;99.90
45012;DHT22;63444;48.148;11.542;2024-01-30T07:05:50;3.80;99.90
45012;DHT22;63444;48.148;11.542;2024-01-30T07:08:16;3.80;99.90
45012;DHT22;63444;48.148;11.542;2024-01-30T07:10:43;3.90;99.90
45012;DHT22;63444;48.148;11.542;2024-01-30T07:13:10;3.90;99.90
45012;DHT22;63444;48.148;11.542;2024-01-30T07:15:36;3.90;99.90
45012;DHT22;63444;48.148;11.542;2024-01-30T07:18:04;3.90;99.90
45012;DHT22;63444;48.148;11.542;2024-01-30T07:20:30;3.90;99.90
45012;DHT22;63444;48.148;11.542;2024-01-30T07:22:58;3.90;99.90
45012;DHT22;63444;48.148;11.542;2024-01-30T07:25:23;3.90;99.90
45012;DHT22;63444;48.148;11.542;2024-01-30T07:27:55;4.00;99.90
45012;DHT22;63444;48.148;11.542;2024-01-30T07:30:21;4.00;99.90
45012;DHT22;63444;48.148;11.542;2024-01-30T07:32:46;4.00;99.90
45012;DHT22;63444;48.148;11.542;2024-01-30T07:35:13;4.10;99.90
45012;DHT22;63444;48.148;11.542;2024-01-30T07:37:39;4.10;99.90
45012;DHT22;63444;48.148;11.542;2024-01-30T07:40:05;4.10;99.90
45012;DHT22;63444;48.148;11.542;2024-01-30T07:42:31;4.10;99.90
45012;DHT22;63444;48.148;11.542;2024-01-30T07:44:57;4.20;99.90
45012;DHT22;63444;48.148;11.542;2024-01-30T07:47:22;4.10;99.90
45012;DHT22;63444;48.148;11.542;2024-01-30T07:49:48;4.20;99.90
45012;DHT22;63444;48.148;11.542;2024-01-30T07:52:14;4.20;99.90
45012;DHT22;63444;48.148;11.542;2024-01-30T07:54:39;4.20;99.90
45012;DHT22;63444;48.148;11.542;2024-01-30T07:57:05;4.30;99.90
45012;DHT22;63444;48.148;11.542;2024-01-30T07:59:31;4.30;99.90
45012;DHT22;63444;48.148;11.542;2024-01-30T08:01:56;4.40;99.90
45012;DHT22;63444;48.148;11.542;2024-01-30T08:04:22;4.40;99.90
45012;DHT22;63444;48.148;11.542;2024-01-30T08:06:47;4.40;99.90
45012;DHT22;63444;48.148;11.542;2024-01-30T08:09:14;4.40;99.90
45012;DHT22;63444;48.148;11.542;2024-01-30T08:11:41;4.50;99.90
45012;DHT22;63444;48.148;11.542;2024-01-30T08:14:07;4.50;99.90
45012;DHT22;63444;48.148;11.542;2024-01-30T08:16:34;4.50;99.90
45012;DHT22;63444;48.148;11.542;2024-01-30T08:18:59;4.50;99.90
45012;DHT22;63444;48.148;11.542;2024-01-30T08:21:26;4.50;99.90
45012;DHT22;63444;48.148;11.542;2024-01-30T08:23:52;4.60;99.90
45012;DHT22;63444;48.148;11.542;2024-01-30T08:26:17;4.60;99.90
45012;DHT22;63444;48.148;11.542;2024-01-30T08:28:43;4.60;99.90
45012;DHT22;63444;48.148;11.542;2024-01-30T08:31:10;4.60;99.90
45012;DHT22;63444;48.148;11.542;2024-01-30T08:33:37;4.70;99.90
45012;DHT22;63444;48.148;11.542;2024-01-30T08:36:03;4.70;99.90
45012;DHT22;63444;48.148;11.542;2024-01-30T08:38:28;4.70;99.90
45012;DHT22;63444;48.148;11.542;2024-01-30T08:40:55;4.80;99.90
45012;DHT22;63444;48.148;11.542;2024-01-30T08:43:21;4.80;99.90
45012;DHT22;63444;48.148;11.542;2024-01-30T08:45:46;4.90;99.90
45012;DHT22;63444;48.148;11.542;2024-01-30T08:48:12;4.90;99.90
45012;DHT22;63444;48.148;11.542;2024-01-30T08:50:38;4.90;99.90
45012;DHT22;63444;48.148;11.542;2024-01-30T08:53:04;5.00;99.90
45012;DHT22;63444;48.148;11.542;2024-01-30T08:55:30;5.00;99.90
45012;DHT22;63444;48.148;11.542;2024-01-30T08:57:57;5.10;99.90
45012;DHT22;63444;48.148;11.542;2024-01-30T09:00:22;5.10;99.90
45012;DHT22;63444;48.148;11.542;2024-01-30T09:02:48;5.00;99.90
45012;DHT22;63444;48.148;11.542;2024-01-30T09:05:14;5.20;99.90
45012;DHT22;63444;48.148;11.542;2024-01-30T09:07:39;5.20;99.90
45012;DHT22;63444;48.148;11.542;2024-01-30T09:10:06;5.30;99.90
45012;DHT22;63444;48.148;11.542;2024-01-30T09:12:32;5.30;99.90
45012;DHT22;63444;48.148;11.542;2024-01-30T09:14:58;5.40;99.90
45012;DHT22;63444;48.148;11.542;2024-01-30T09:17:23;5.50;99.90
45012;DHT22;63444;48.148;11.542;2024-01-30T09:19:49;5.50;99.90
45012;DHT22;63444;48.148;11.542;2024-01-30T09:22:16;5.50;99.90
45012;DHT22;63444;48.148;11.542;2024-01-30T09:24:41;5.60;99.90
45012;DHT22;63444;48.148;11.542;2024-01-30T09:27:07;5.60;99.90
45012;DHT22;63444;48.148;11.542;2024-01-30T09:29:33;5.70;99.90
45012;DHT22;63444;48.148;11.542;2024-01-30T09:32:01;5.70;99.90
45012;DHT22;63444;48.148;11.542;2024-01-30T09:34:27;5.80;99.90
45012;DHT22;63444;48.148;11.542;2024-01-30T09:36:52;5.90;99.90
45012;DHT22;63444;48.148;11.542;2024-01-30T09:39:19;6.00;99.90
45012;DHT22;63444;48.148;11.542;2024-01-30T09:41:49;6.00;99.90
45012;DHT22;63444;48.148;11.542;2024-01-30T09:44:17;6.10;99.90
45012;DHT22;63444;48.148;11.542;2024-01-30T09:46:47;6.10;99.90
45012;DHT22;63444;48.148;11.542;2024-01-30T09:49:15;6.20;99.90
45012;DHT22;63444;48.148;11.542;2024-01-30T09:51:44;6.30;99.90
45012;DHT22;63444;48.148;11.542;2024-01-30T09:54:11;6.40;99.90
45012;DHT22;63444;48.148;11.542;2024-01-30T09:56:38;6.50;99.90
45012;DHT22;63444;48.148;11.542;2024-01-30T09:59:04;6.60;99.90
45012;DHT22;63444;48.148;11.542;2024-01-30T10:01:30;6.70;99.90
45012;DHT22;63444;48.148;11.542;2024-01-30T10:03:56;6.80;99.90
45012;DHT22;63444;48.148;11.542;2024-01-30T10:06:24;6.90;99.90
45012;DHT22;63444;48.148;11.542;2024-01-30T10:08:50;7.00;99.90
45012;DHT22;63444;48.148;11.542;2024-01-30T10:11:16;7.10;99.90
45012;DHT22;63444;48.148;11.542;2024-01-30T10:13:41;7.20;99.90
45012;DHT22;63444;48.148;11.542;2024-01-30T10:16:07;7.40;99.90
45012;DHT22;63444;48.148;11.542;2024-01-30T10:18:32;7.40;99.90
45012;DHT22;63444;48.148;11.542;2024-01-30T10:20:59;7.60;99.50
45012;DHT22;63444;48.148;11.542;2024-01-30T10:23:25;7.90;97.50
45012;DHT22;63444;48.148;11.542;2024-01-30T10:25:52;8.20;96.90
45012;DHT22;63444;48.148;11.542;2024-01-30T10:28:18;8.40;97.00
45012;DHT22;63444;48.148;11.542;2024-01-30T10:30:43;8.60;97.50
45012;DHT22;63444;48.148;11.542;2024-01-30T10:33:09;8.60;98.10
45012;DHT22;63444;48.148;11.542;2024-01-30T10:35:35;8.60;98.30
45012;DHT22;63444;48.148;11.542;2024-01-30T10:38:00;8.80;95.40
45012;DHT22;63444;48.148;11.542;2024-01-30T10:40:28;9.00;94.40
45012;DHT22;63444;48.148;11.542;2024-01-30T10:42:56;9.30;93.80
45012;DHT22;63444;48.148;11.542;2024-01-30T10:45:26;9.40;94.90
45012;DHT22;63444;48.148;11.542;2024-01-30T10:47:55;9.50;94.20
45012;DHT22;63444;48.148;11.542;2024-01-30T10:50:25;9.50;95.10
45012;DHT22;63444;48.148;11.542;2024-01-30T10:52:51;9.60;94.40
45012;DHT22;63444;48.148;11.542;2024-01-30T10:55:18;9.80;92.30
45012;DHT22;63444;48.148;11.542;2024-01-30T10:57:45;10.00;91.50
45012;DHT22;63444;48.148;11.542;2024-01-30T11:00:13;10.20;91.00
45012;DHT22;63444;48.148;11.542;2024-01-30T11:02:43;10.40;90.90
45012;DHT22;63444;48.148;11.542;2024-01-30T11:05:09;10.50;91.50
45012;DHT22;63444;48.148;11.542;2024-01-30T11:07:35;10.60;90.80
45012;DHT22;63444;48.148;11.542;2024-01-30T11:10:04;10.60;91.60
45012;DHT22;63444;48.148;11.542;2024-01-30T11:12:33;10.70;92.10
45012;DHT22;63444;48.148;11.542;2024-01-30T11:15:12;10.70;92.70
45012;DHT22;63444;48.148;11.542;2024-01-30T11:20:21;10.90;91.40
45012;DHT22;63444;48.148;11.542;2024-01-30T11:22:48;11.00;92.10
45012;DHT22;63444;48.148;11.542;2024-01-30T11:25:15;11.10;92.40
45012;DHT22;63444;48.148;11.542;2024-01-30T11:27:43;11.20;92.30
45012;DHT22;63444;48.148;11.542;2024-01-30T11:30:09;11.20;92.00
45012;DHT22;63444;48.148;11.542;2024-01-30T11:32:35;11.30;91.80
45012;DHT22;63444;48.148;11.542;2024-01-30T11:35:03;11.40;91.50
45012;DHT22;63444;48.148;11.542;2024-01-30T11:37:31;11.60;91.10
45012;DHT22;63444;48.148;11.542;2024-01-30T11:39:57;11.70;91.30
45012;DHT22;63444;48.148;11.542;2024-01-30T11:42:24;11.70;90.60
45012;DHT22;63444;48.148;11.542;2024-01-30T11:44:53;11.90;90.10
45012;DHT22;63444;48.148;11.542;2024-01-30T11:47:18;11.90;90.10
45012;DHT22;63444;48.148;11.542;2024-01-30T11:49:44;12.00;90.20
45012;DHT22;63444;48.148;11.542;2024-01-30T11:52:10;12.10;89.10
45012;DHT22;63444;48.148;11.542;2024-01-30T11:54:39;12.20;89.20
45012;DHT22;63444;48.148;11.542;2024-01-30T11:57:05;12.20;88.10
45012;DHT22;63444;48.148;11.542;2024-01-30T11:59:30;12.30;88.00
45012;DHT22;63444;48.148;11.542;2024-01-30T12:01:56;12.40;88.20
45012;DHT22;63444;48.148;11.542;2024-01-30T12:04:22;12.40;89.00
45012;DHT22;63444;48.148;11.542;2024-01-30T12:06:51;12.40;86.90
45012;DHT22;63444;48.148;11.542;2024-01-30T12:09:18;12.50;86.40
45012;DHT22;63444;48.148;11.542;2024-01-30T12:11:45;12.50;86.30
45012;DHT22;63444;48.148;11.542;2024-01-30T12:14:11;12.60;87.10
45012;DHT22;63444;48.148;11.542;2024-01-30T12:16:37;12.60;87.10
45012;DHT22;63444;48.148;11.542;2024-01-30T12:19:03;12.70;87.50
45012;DHT22;63444;48.148;11.542;2024-01-30T12:21:29;12.70;87.10
45012;DHT22;63444;48.148;11.542;2024-01-30T12:23:59;12.80;87.00
45012;DHT22;63444;48.148;11.542;2024-01-30T12:26:25;12.90;86.40
45012;DHT22;63444;48.148;11.542;2024-01-30T12:28:54;12.90;85.50
45012;DHT22;63444;48.148;11.542;2024-01-30T12:31:28;13.00;84.30
45012;DHT22;63444;48.148;11.542;2024-01-30T12:33:54;13.00;84.10
45012;DHT22;63444;48.148;11.542;2024-01-30T12:36:21;13.10;83.40
45012;DHT22;63444;48.148;11.542;2024-01-30T12:38:47;13.10;83.50
45012;DHT22;63444;48.148;11.542;2024-01-30T12:41:13;13.10;83.70
45012;DHT22;63444;48.148;11.542;2024-01-30T12:43:39;13.10;83.80
45012;DHT22;63444;48.148;11.542;2024-01-30T12:46:05;13.10;83.50
45012;DHT22;63444;48.148;11.542;2024-01-30T12:48:31;13.10;83.40
45012;DHT22;63444;48.148;11.542;2024-01-30T12:50:57;13.10;82.10
45012;DHT22;63444;48.148;11.542;2024-01-30T12:53:23;13.00;82.10
45012;DHT22;63444;48.148;11.542;2024-01-30T12:55:48;13.00;82.60
45012;DHT22;63444;48.148;11.542;2024-01-30T12:58:15;13.00;83.40
45012;DHT22;63444;48.148;11.542;2024-01-30T13:00:43;13.00;83.40
45012;DHT22;63444;48.148;11.542;2024-01-30T13:03:10;13.00;82.80
45012;DHT22;63444;48.148;11.542;2024-01-30T13:05:36;13.00;82.30
45012;DHT22;63444;48.148;11.542;2024-01-30T13:08:01;13.10;82.20
45012;DHT22;63444;48.148;11.542;2024-01-30T13:10:27;13.10;81.90
45012;DHT22;63444;48.148;11.542;2024-01-30T13:12:53;13.10;82.00
45012;DHT22;63444;48.148;11.542;2024-01-30T13:15:18;13.10;81.00
45012;DHT22;63444;48.148;11.542;2024-01-30T13:17:44;13.10;81.00
45012;DHT22;63444;48.148;11.542;2024-01-30T13:20:13;13.20;81.40
45012;DHT22;63444;48.148;11.542;2024-01-30T13:22:43;13.20;81.10
45012;DHT22;63444;48.148;11.542;2024-01-30T13:25:08;13.20;78.70
45012;DHT22;63444;48.148;11.542;2024-01-30T13:27:37;13.30;78.90
45012;DHT22;63444;48.148;11.542;2024-01-30T13:30:03;13.20;79.40
45012;DHT22;63444;48.148;11.542;2024-01-30T13:32:29;13.30;79.70
45012;DHT22;63444;48.148;11.542;2024-01-30T13:34:55;13.30;79.00
45012;DHT22;63444;48.148;11.542;2024-01-30T13:37:22;13.30;78.30
45012;DHT22;63444;48.148;11.542;2024-01-30T13:39:48;13.30;78.00
45012;DHT22;63444;48.148;11.542;2024-01-30T13:42:15;13.30;77.50
45012;DHT22;63444;48.148;11.542;2024-01-30T13:44:41;13.20;77.00
45012;DHT22;63444;48.148;11.542;2024-01-30T13:47:09;13.20;77.50
45012;DHT22;63444;48.148;11.542;2024-01-30T13:49:35;13.20;77.90
45012;DHT22;63444;48.148;11.542;2024-01-30T13:52:00;13.20;78.10
45012;DHT22;63444;48.148;11.542;2024-01-30T13:54:26;13.10;78.50
45012;DHT22;63444;48.148;11.542;2024-01-30T13:56:52;13.10;77.60
45012;DHT22;63444;48.148;11.542;2024-01-30T13:59:17;13.10;77.60
45012;DHT22;63444;48.148;11.542;2024-01-30T14:01:49;13.10;77.90
45012;DHT22;63444;48.148;11.542;2024-01-30T14:04:14;13.00;78.60
45012;DHT22;63444;48.148;11.542;2024-01-30T14:06:40;13.00;78.90
45012;DHT22;63444;48.148;11.542;2024-01-30T14:09:06;12.90;79.30
45012;DHT22;63444;48.148;11.542;2024-01-30T14:11:31;12.90;79.70
45012;DHT22;63444;48.148;11.542;2024-01-30T14:13:58;12.90;80.00
45012;DHT22;63444;48.148;11.542;2024-01-30T14:16:24;12.80;80.60
45012;DHT22;63444;48.148;11.542;2024-01-30T14:18:50;12.90;81.10
45012;DHT22;63444;48.148;11.542;2024-01-30T14:21:16;12.80;81.60
45012;DHT22;63444;48.148;11.542;2024-01-30T14:23:41;12.80;82.10
45012;DHT22;63444;48.148;11.542;2024-01-30T14:26:07;12.70;82.10
45012;DHT22;63444;48.148;11.542;2024-01-30T14:28:32;12.70;82.40
45012;DHT22;63444;48.148;11.542;2024-01-30T14:30:59;12.70;82.80
45012;DHT22;63444;48.148;11.542;2024-01-30T14:33:25;12.60;83.00
45012;DHT22;63444;48.148;11.542;2024-01-30T14:35:51;12.60;83.50
45012;DHT22;63444;48.148;11.542;2024-01-30T14:38:16;12.60;83.70
45012;DHT22;63444;48.148;11.542;2024-01-30T14:40:42;12.60;84.10
45012;DHT22;63444;48.148;11.542;2024-01-30T14:43:08;12.50;84.30
45012;DHT22;63444;48.148;11.542;2024-01-30T14:45:33;12.50;84.60
45012;DHT22;63444;48.148;11.542;2024-01-30T14:47:59;12.50;84.60
45012;DHT22;63444;48.148;11.542;2024-01-30T14:50:26;12.50;84.70
45012;DHT22;63444;48.148;11.542;2024-01-30T14:52:53;12.50;84.90
45012;DHT22;63444;48.148;11.542;2024-01-30T14:55:20;12.40;84.60
45012;DHT22;63444;48.148;11.542;2024-01-30T14:57:46;12.40;84.90
45012;DHT22;63444;48.148;11.542;2024-01-30T15:00:12;12.40;85.80
45012;DHT22;63444;48.148;11.542;2024-01-30T15:02:39;12.40;86.00
45012;DHT22;63444;48.148;11.542;2024-01-30T15:05:05;12.40;86.20
45012;DHT22;63444;48.148;11.542;2024-01-30T15:07:30;12.30;86.20
45012;DHT22;63444;48.148;11.542;2024-01-30T15:09:56;12.30;86.40
45012;DHT22;63444;48.148;11.542;2024-01-30T15:12:21;12.30;86.60
45012;DHT22;63444;48.148;11.542;2024-01-30T15:14:47;12.30;87.80
45012;DHT22;63444;48.148;11.542;2024-01-30T15:17:18;12.20;87.80
45012;DHT22;63444;48.148;11.542;2024-01-30T15:19:46;12.20;88.10
45012;DHT22;63444;48.148;11.542;2024-01-30T15:22:12;12.30;88.60
45012;DHT22;63444;48.148;11.542;2024-01-30T15:24:38;12.20;89.10